sensor_id;sensor_type;location;lat;lon;timestamp;pressure;altitude;pressure_sealevel;temperature;humidity
44663;BME280;30381;52.754;18.258;2023-02-27T01:23:34;101511.80;;;-2.34;100.00
44663;BME280;30381;52.754;18.258;2023-02-27T01:26:00;101511.41;;;-2.34;100.00
44663;BME280;30381;52.754;18.258;2023-02-27T01:28:26;101510.63;;;-2.33;100.00
44663;BME280;30381;52.754;18.258;2023-02-27T01:30:52;101509.04;;;-2.31;100.00
44663;BME280;30381;52.754;18.258;2023-02-27T01:33:19;101509.87;;;-2.28;100.00
44663;BME280;30381;52.754;18.258;2023-02-27T01:35:45;101509.52;;;-2.26;100.00
44663;BME280;30381;52.754;18.258;2023-02-27T01:38:11;101514.33;;;-2.25;100.00
44663;BME280;30381;52.754;18.258;2023-02-27T01:40:39;101513.04;;;-2.24;100.00
44663;BME280;30381;52.754;18.258;2023-02-27T01:43:13;101513.48;;;-2.23;100.00
44663;BME280;30381;52.754;18.258;2023-02-27T01:45:41;101512.87;;;-2.22;100.00
44663;BME280;30381;52.754;18.258;2023-02-27T01:48:13;101509.09;;;-2.21;100.00
44663;BME280;30381;52.754;18.258;2023-02-27T01:50:47;101504.67;;;-2.19;100.00
44663;BME280;30381;52.754;18.258;2023-02-27T01:53:16;101507.53;;;-2.18;100.00
44663;BME280;30381;52.754;18.258;2023-02-27T01:55:45;101509.73;;;-2.16;100.00
44663;BME280;30381;52.754;18.258;2023-02-27T01:58:11;101508.25;;;-2.18;100.00
44663;BME280;30381;52.754;18.258;2023-02-27T02:00:39;101515.45;;;-2.19;100.00
44663;BME280;30381;52.754;18.258;2023-02-27T02:03:20;101517.84;;;-2.22;100.00
44663;BME280;30381;52.754;18.258;2023-02-27T02:05:48;101517.77;;;-2.28;100.00
44663;BME280;30381;52.754;18.258;2023-02-27T02:08:18;101522.45;;;-2.31;100.00
44663;BME280;30381;52.754;18.258;2023-02-27T02:10:47;101521.33;;;-2.34;100.00
44663;BME280;30381;52.754;18.258;2023-02-27T02:13:15;101523.66;;;-2.36;100.00
44663;BME280;30381;52.754;18.258;2023-02-27T02:15:47;101524.52;;;-2.38;100.00
44663;BME280;30381;52.754;18.258;2023-02-27T02:18:17;101526.16;;;-2.39;100.00
44663;BME280;30381;52.754;18.258;2023-02-27T02:26:37;101526.19;;;-2.37;100.00
44663;BME280;30381;52.754;18.258;2023-02-27T02:40:52;101538.73;;;-2.27;100.00
44663;BME280;30381;52.754;18.258;2023-02-27T02:43:30;101542.52;;;-2.24;100.00
44663;BME280;30381;52.754;18.258;2023-02-27T02:51:30;101547.33;;;-2.18;100.00
44663;BME280;30381;52.754;18.258;2023-02-27T02:54:13;101550.16;;;-2.16;100.00
44663;BME280;30381;52.754;18.258;2023-02-27T02:56:59;101549.45;;;-2.16;100.00
44663;BME280;30381;52.754;18.258;2023-02-27T02:59:56;101552.58;;;-2.15;100.00
44663;BME280;30381;52.754;18.258;2023-02-27T03:02:38;101557.39;;;-2.16;100.00
44663;BME280;30381;52.754;18.258;2023-02-27T03:05:31;101563.76;;;-2.16;100.00
44663;BME280;30381;52.754;18.258;2023-02-27T03:08:23;101567.68;;;-2.17;100.00
44663;BME280;30381;52.754;18.258;2023-02-27T03:10:59;101568.05;;;-2.17;100.00
44663;BME280;30381;52.754;18.258;2023-02-27T03:13:39;101571.39;;;-2.17;100.00
44663;BME280;30381;52.754;18.258;2023-02-27T03:18:45;101572.59;;;-2.16;100.00
44663;BME280;30381;52.754;18.258;2023-02-27T03:21:18;101572.83;;;-2.14;100.00
44663;BME280;30381;52.754;18.258;2023-02-27T03:23:47;101575.10;;;-2.14;100.00
44663;BME280;30381;52.754;18.258;2023-02-27T03:26:19;101575.64;;;-2.14;100.00
44663;BME280;30381;52.754;18.258;2023-02-27T03:29:06;101582.23;;;-2.15;100.00
44663;BME280;30381;52.754;18.258;2023-02-27T03:32:21;101585.13;;;-2.16;100.00
44663;BME280;30381;52.754;18.258;2023-02-27T03:34:48;101590.91;;;-2.17;100.00
44663;BME280;30381;52.754;18.258;2023-02-27T03:41:00;101587.94;;;-2.22;100.00
44663;BME280;30381;52.754;18.258;2023-02-27T03:43:29;101588.58;;;-2.25;100.00
44663;BME280;30381;52.754;18.258;2023-02-27T03:46:11;101596.31;;;-2.27;100.00
44663;BME280;30381;52.754;18.258;2023-02-27T03:48:38;101602.48;;;-2.27;100.00
44663;BME280;30381;52.754;18.258;2023-02-27T03:51:14;101599.83;;;-2.27;100.00
44663;BME280;30381;52.754;18.258;2023-02-27T03:54:12;101598.17;;;-2.24;100.00
44663;BME280;30381;52.754;18.258;2023-02-27T03:56:59;101604.33;;;-2.21;100.00
44663;BME280;30381;52.754;18.258;2023-02-27T03:59:26;101608.52;;;-2.19;100.00
44663;BME280;30381;52.754;18.258;2023-02-27T04:01:54;101609.91;;;-2.16;100.00
44663;BME280;30381;52.754;18.258;2023-02-27T04:04:22;101610.98;;;-2.14;100.00
44663;BME280;30381;52.754;18.258;2023-02-27T04:06:56;101615.35;;;-2.11;100.00
44663;BME280;30381;52.754;18.258;2023-02-27T04:17:57;101624.47;;;-2.03;100.00
44663;BME280;30381;52.754;18.258;2023-02-27T04:23:47;101624.42;;;-2.00;100.00
44663;BME280;30381;52.754;18.258;2023-02-27T04:26:21;101626.79;;;-1.99;100.00
44663;BME280;30381;52.754;18.258;2023-02-27T04:29:17;101627.06;;;-1.98;100.00
44663;BME280;30381;52.754;18.258;2023-02-27T04:31:59;101628.70;;;-1.96;100.00
44663;BME280;30381;52.754;18.258;2023-02-27T04:34:35;101630.24;;;-1.96;100.00
44663;BME280;30381;52.754;18.258;2023-02-27T04:37:16;101632.46;;;-1.95;100.00
44663;BME280;30381;52.754;18.258;2023-02-27T04:39:52;101634.36;;;-1.94;100.00
44663;BME280;30381;52.754;18.258;2023-02-27T04:42:23;101635.27;;;-1.93;100.00
44663;BME280;30381;52.754;18.258;2023-02-27T04:44:56;101638.77;;;-1.92;100.00
44663;BME280;30381;52.754;18.258;2023-02-27T04:47:24;101637.24;;;-1.91;100.00
44663;BME280;30381;52.754;18.258;2023-02-27T04:50:00;101639.88;;;-1.91;100.00
44663;BME280;30381;52.754;18.258;2023-02-27T04:52:36;101639.30;;;-1.90;100.00
44663;BME280;30381;52.754;18.258;2023-02-27T04:55:12;101645.13;;;-1.90;100.00
44663;BME280;30381;52.754;18.258;2023-02-27T04:57:45;101647.92;;;-1.90;100.00
44663;BME280;30381;52.754;18.258;2023-02-27T05:00:13;101648.75;;;-1.89;100.00
44663;BME280;30381;52.754;18.258;2023-02-27T05:02:44;101655.45;;;-1.89;100.00
44663;BME280;30381;52.754;18.258;2023-02-27T05:05:15;101657.13;;;-1.88;100.00
44663;BME280;30381;52.754;18.258;2023-02-27T05:07:56;101657.63;;;-1.88;100.00
44663;BME280;30381;52.754;18.258;2023-02-27T05:10:37;101660.19;;;-1.87;100.00
44663;BME280;30381;52.754;18.258;2023-02-27T05:13:15;101659.27;;;-1.86;100.00
44663;BME280;30381;52.754;18.258;2023-02-27T05:15:55;101662.04;;;-1.85;100.00
44663;BME280;30381;52.754;18.258;2023-02-27T05:18:24;101665.86;;;-1.85;100.00
44663;BME280;30381;52.754;18.258;2023-02-27T05:21:00;101667.95;;;-1.84;100.00
44663;BME280;30381;52.754;18.258;2023-02-27T05:26:45;101671.61;;;-1.86;100.00
44663;BME280;30381;52.754;18.258;2023-02-27T05:29:30;101675.73;;;-1.86;100.00
44663;BME280;30381;52.754;18.258;2023-02-27T05:32:10;101675.36;;;-1.86;100.00
44663;BME280;30381;52.754;18.258;2023-02-27T05:34:43;101675.89;;;-1.86;100.00
44663;BME280;30381;52.754;18.258;2023-02-27T05:37:19;101679.90;;;-1.86;100.00
44663;BME280;30381;52.754;18.258;2023-02-27T05:39:49;101688.25;;;-1.84;100.00
44663;BME280;30381;52.754;18.258;2023-02-27T05:42:31;101690.30;;;-1.83;100.00
44663;BME280;30381;52.754;18.258;2023-02-27T05:45:09;101696.38;;;-1.82;100.00
44663;BME280;30381;52.754;18.258;2023-02-27T05:47:47;101699.52;;;-1.81;100.00
44663;BME280;30381;52.754;18.258;2023-02-27T05:50:20;101703.91;;;-1.81;100.00
44663;BME280;30381;52.754;18.258;2023-02-27T05:52:50;101702.04;;;-1.80;100.00
44663;BME280;30381;52.754;18.258;2023-02-27T05:55:38;101706.25;;;-1.78;100.00
44663;BME280;30381;52.754;18.258;2023-02-27T05:58:26;101707.96;;;-1.77;100.00
44663;BME280;30381;52.754;18.258;2023-02-27T06:01:01;101716.77;;;-1.75;100.00
44663;BME280;30381;52.754;18.258;2023-02-27T06:03:36;101722.58;;;-1.72;100.00
44663;BME280;30381;52.754;18.258;2023-02-27T06:06:21;101717.17;;;-1.71;100.00
44663;BME280;30381;52.754;18.258;2023-02-27T06:08:47;101718.65;;;-1.69;100.00
44663;BME280;30381;52.754;18.258;2023-02-27T06:11:15;101722.42;;;-1.66;100.00
44663;BME280;30381;52.754;18.258;2023-02-27T06:13:42;101720.56;;;-1.63;100.00
44663;BME280;30381;52.754;18.258;2023-02-27T06:16:28;101724.41;;;-1.60;100.00
44663;BME280;30381;52.754;18.258;2023-02-27T06:19:04;101722.16;;;-1.57;100.00
44663;BME280;30381;52.754;18.258;2023-02-27T06:21:32;101722.23;;;-1.53;100.00
44663;BME280;30381;52.754;18.258;2023-02-27T06:23:58;101723.45;;;-1.51;100.00
44663;BME280;30381;52.754;18.258;2023-02-27T06:26:25;101728.11;;;-1.48;100.00
44663;BME280;30381;52.754;18.258;2023-02-27T06:28:51;101728.92;;;-1.45;100.00
44663;BME280;30381;52.754;18.258;2023-02-27T06:31:20;101729.48;;;-1.41;100.00
44663;BME280;30381;52.754;18.258;2023-02-27T06:33:48;101729.79;;;-1.37;100.00
44663;BME280;30381;52.754;18.258;2023-02-27T06:36:14;101733.27;;;-1.32;100.00
44663;BME280;30381;52.754;18.258;2023-02-27T06:38:40;101735.00;;;-1.29;100.00
44663;BME280;30381;52.754;18.258;2023-02-27T06:41:06;101737.57;;;-1.24;100.00
44663;BME280;30381;52.754;18.258;2023-02-27T06:43:32;101739.29;;;-1.20;100.00
44663;BME280;30381;52.754;18.258;2023-02-27T06:46:02;101741.55;;;-1.15;100.00
44663;BME280;30381;52.754;18.258;2023-02-27T06:48:29;101744.36;;;-1.11;100.00
44663;BME280;30381;52.754;18.258;2023-02-27T06:53:24;101758.41;;;-1.04;100.00
44663;BME280;30381;52.754;18.258;2023-02-27T06:55:51;101759.13;;;-0.98;100.00
44663;BME280;30381;52.754;18.258;2023-02-27T06:58:18;101757.28;;;-0.93;100.00
44663;BME280;30381;52.754;18.258;2023-02-27T07:00:44;101760.41;;;-0.86;100.00
44663;BME280;30381;52.754;18.258;2023-02-27T07:03:11;101766.09;;;-0.78;100.00
44663;BME280;30381;52.754;18.258;2023-02-27T07:05:42;101765.76;;;-0.71;100.00
44663;BME280;30381;52.754;18.258;2023-02-27T07:08:09;101767.95;;;-0.65;100.00
44663;BME280;30381;52.754;18.258;2023-02-27T07:10:37;101766.56;;;-0.60;100.00
44663;BME280;30381;52.754;18.258;2023-02-27T07:13:06;101766.05;;;-0.54;100.00
44663;BME280;30381;52.754;18.258;2023-02-27T07:15:32;101773.00;;;-0.49;100.00
44663;BME280;30381;52.754;18.258;2023-02-27T07:17:59;101780.81;;;-0.43;100.00
44663;BME280;30381;52.754;18.258;2023-02-27T07:20:29;101777.73;;;-0.38;100.00
44663;BME280;30381;52.754;18.258;2023-02-27T07:22:57;101783.14;;;-0.33;100.00
44663;BME280;30381;52.754;18.258;2023-02-27T07:25:23;101783.00;;;-0.28;100.00
44663;BME280;30381;52.754;18.258;2023-02-27T07:27:51;101789.89;;;-0.22;100.00
44663;BME280;30381;52.754;18.258;2023-02-27T07:32:44;101789.66;;;-0.08;100.00
44663;BME280;30381;52.754;18.258;2023-02-27T07:35:12;101789.00;;;-0.00;100.00
44663;BME280;30381;52.754;18.258;2023-02-27T07:37:38;101793.40;;;0.04;100.00
44663;BME280;30381;52.754;18.258;2023-02-27T07:40:06;101798.52;;;0.08;100.00
44663;BME280;30381;52.754;18.258;2023-02-27T07:42:34;101799.24;;;0.12;100.00
44663;BME280;30381;52.754;18.258;2023-02-27T07:45:01;101802.55;;;0.16;100.00
44663;BME280;30381;52.754;18.258;2023-02-27T07:47:28;101802.52;;;0.18;100.00
44663;BME280;30381;52.754;18.258;2023-02-27T07:50:15;101804.18;;;0.24;100.00
44663;BME280;30381;52.754;18.258;2023-02-27T07:52:42;101800.34;;;0.29;100.00
44663;BME280;30381;52.754;18.258;2023-02-27T07:55:11;101795.99;;;0.35;100.00
44663;BME280;30381;52.754;18.258;2023-02-27T08:00:24;101796.75;;;0.52;100.00
44663;BME280;30381;52.754;18.258;2023-02-27T08:03:11;101805.98;;;0.62;100.00
44663;BME280;30381;52.754;18.258;2023-02-27T08:08:07;101811.49;;;0.73;100.00
44663;BME280;30381;52.754;18.258;2023-02-27T08:10:48;101812.63;;;0.81;100.00
44663;BME280;30381;52.754;18.258;2023-02-27T08:15:51;101819.94;;;0.96;100.00
44663;BME280;30381;52.754;18.258;2023-02-27T08:20:47;101828.95;;;1.02;100.00
44663;BME280;30381;52.754;18.258;2023-02-27T08:25:40;101829.22;;;1.12;100.00
44663;BME280;30381;52.754;18.258;2023-02-27T08:28:29;101831.52;;;1.19;100.00
44663;BME280;30381;52.754;18.258;2023-02-27T08:35:52;101839.96;;;1.38;100.00
44663;BME280;30381;52.754;18.258;2023-02-27T08:41:00;101840.98;;;1.42;100.00
44663;BME280;30381;52.754;18.258;2023-02-27T08:45:55;101842.54;;;1.46;100.00
44663;BME280;30381;52.754;18.258;2023-02-27T08:48:22;101843.98;;;1.55;100.00
44663;BME280;30381;52.754;18.258;2023-02-27T08:51:38;101848.34;;;1.64;100.00
44663;BME280;30381;52.754;18.258;2023-02-27T08:56:32;101845.45;;;1.88;100.00
44663;BME280;30381;52.754;18.258;2023-02-27T08:59:00;101845.40;;;2.01;100.00
44663;BME280;30381;52.754;18.258;2023-02-27T09:01:47;101847.73;;;2.18;100.00
44663;BME280;30381;52.754;18.258;2023-02-27T09:07:01;101844.52;;;2.51;100.00
44663;BME280;30381;52.754;18.258;2023-02-27T09:14:17;101845.58;;;3.03;100.00
44663;BME280;30381;52.754;18.258;2023-02-27T09:19:29;101854.27;;;3.30;100.00
44663;BME280;30381;52.754;18.258;2023-02-27T09:21:58;101864.04;;;3.40;100.00
44663;BME280;30381;52.754;18.258;2023-02-27T09:24:28;101863.01;;;3.54;100.00
44663;BME280;30381;52.754;18.258;2023-02-27T09:27:03;101872.16;;;3.58;100.00
44663;BME280;30381;52.754;18.258;2023-02-27T09:29:29;101868.67;;;3.56;100.00
44663;BME280;30381;52.754;18.258;2023-02-27T09:31:55;101869.15;;;3.58;100.00
44663;BME280;30381;52.754;18.258;2023-02-27T09:37:09;101873.86;;;3.71;100.00
44663;BME280;30381;52.754;18.258;2023-02-27T09:39:44;101878.91;;;3.72;100.00
44663;BME280;30381;52.754;18.258;2023-02-27T09:42:18;101881.81;;;3.85;100.00
44663;BME280;30381;52.754;18.258;2023-02-27T09:44:46;101883.27;;;4.03;100.00
44663;BME280;30381;52.754;18.258;2023-02-27T09:47:34;101881.59;;;4.12;100.00
44663;BME280;30381;52.754;18.258;2023-02-27T09:50:43;101882.86;;;4.26;100.00
44663;BME280;30381;52.754;18.258;2023-02-27T09:55:49;101882.09;;;4.44;100.00
44663;BME280;30381;52.754;18.258;2023-02-27T10:15:13;101881.88;;;4.99;100.00
44663;BME280;30381;52.754;18.258;2023-02-27T10:18:26;101882.64;;;4.89;100.00
44663;BME280;30381;52.754;18.258;2023-02-27T10:26:07;101883.60;;;4.92;100.00
44663;BME280;30381;52.754;18.258;2023-02-27T10:28:38;101887.45;;;4.94;100.00
44663;BME280;30381;52.754;18.258;2023-02-27T10:33:36;101887.27;;;4.84;100.00
44663;BME280;30381;52.754;18.258;2023-02-27T10:36:08;101888.68;;;4.68;100.00
44663;BME280;30381;52.754;18.258;2023-02-27T10:38:50;101892.83;;;4.53;100.00
44663;BME280;30381;52.754;18.258;2023-02-27T10:43:56;101896.38;;;4.37;100.00
44663;BME280;30381;52.754;18.258;2023-02-27T10:46:27;101898.95;;;4.39;100.00
44663;BME280;30381;52.754;18.258;2023-02-27T10:52:18;101901.67;;;4.38;100.00
44663;BME280;30381;52.754;18.258;2023-02-27T10:54:45;101902.77;;;4.49;100.00
44663;BME280;30381;52.754;18.258;2023-02-27T10:59:56;101906.02;;;4.52;100.00
44663;BME280;30381;52.754;18.258;2023-02-27T11:02:35;101898.48;;;4.57;100.00
44663;BME280;30381;52.754;18.258;2023-02-27T11:05:03;101900.11;;;4.70;100.00
44663;BME280;30381;52.754;18.258;2023-02-27T11:07:38;101903.80;;;4.67;100.00
44663;BME280;30381;52.754;18.258;2023-02-27T11:12:37;101893.94;;;4.93;100.00
44663;BME280;30381;52.754;18.258;2023-02-27T11:17:44;101893.83;;;5.38;100.00
44663;BME280;30381;52.754;18.258;2023-02-27T11:23:14;101898.49;;;5.09;100.00
44663;BME280;30381;52.754;18.258;2023-02-27T11:26:34;101900.70;;;4.77;100.00
44663;BME280;30381;52.754;18.258;2023-02-27T11:31:27;101907.16;;;4.53;100.00
44663;BME280;30381;52.754;18.258;2023-02-27T11:33:54;101907.39;;;4.41;100.00
44663;BME280;30381;52.754;18.258;2023-02-27T11:36:37;101904.10;;;4.31;100.00
44663;BME280;30381;52.754;18.258;2023-02-27T11:39:23;101904.87;;;4.31;100.00
44663;BME280;30381;52.754;18.258;2023-02-27T11:41:51;101901.48;;;4.31;100.00
44663;BME280;30381;52.754;18.258;2023-02-27T11:44:21;101901.56;;;4.32;100.00
44663;BME280;30381;52.754;18.258;2023-02-27T11:46:49;101907.00;;;4.29;100.00
44663;BME280;30381;52.754;18.258;2023-02-27T11:49:33;101904.36;;;4.27;100.00
44663;BME280;30381;52.754;18.258;2023-02-27T11:52:16;101902.80;;;4.25;100.00
44663;BME280;30381;52.754;18.258;2023-02-27T11:55:04;101906.82;;;4.23;100.00
44663;BME280;30381;52.754;18.258;2023-02-27T11:57:38;101906.55;;;4.17;100.00
44663;BME280;30381;52.754;18.258;2023-02-27T12:00:24;101909.54;;;4.16;100.00
44663;BME280;30381;52.754;18.258;2023-02-27T12:05:57;101913.91;;;4.03;100.00
44663;BME280;30381;52.754;18.258;2023-02-27T12:11:24;101914.70;;;4.06;100.00
44663;BME280;30381;52.754;18.258;2023-02-27T12:19:00;101906.42;;;4.03;100.00
44663;BME280;30381;52.754;18.258;2023-02-27T12:21:32;101905.47;;;4.01;100.00
44663;BME280;30381;52.754;18.258;2023-02-27T12:24:08;101907.40;;;4.01;100.00
44663;BME280;30381;52.754;18.258;2023-02-27T12:26:46;101902.67;;;3.95;100.00
44663;BME280;30381;52.754;18.258;2023-02-27T12:32:21;101900.98;;;4.03;100.00
44663;BME280;30381;52.754;18.258;2023-02-27T12:34:53;101905.88;;;4.15;100.00
44663;BME280;30381;52.754;18.258;2023-02-27T12:37:44;101907.12;;;4.20;100.00
44663;BME280;30381;52.754;18.258;2023-02-27T12:40:30;101904.97;;;4.18;100.00
44663;BME280;30381;52.754;18.258;2023-02-27T12:46:00;101910.98;;;4.15;100.00
44663;BME280;30381;52.754;18.258;2023-02-27T12:56:55;101917.36;;;4.13;100.00
44663;BME280;30381;52.754;18.258;2023-02-27T12:59:51;101919.60;;;4.12;100.00
44663;BME280;30381;52.754;18.258;2023-02-27T13:05:34;101920.02;;;3.96;100.00
44663;BME280;30381;52.754;18.258;2023-02-27T13:13:58;101915.67;;;3.88;100.00
44663;BME280;30381;52.754;18.258;2023-02-27T13:16:36;101914.16;;;3.89;100.00
44663;BME280;30381;52.754;18.258;2023-02-27T13:19:23;101914.21;;;3.90;100.00
44663;BME280;30381;52.754;18.258;2023-02-27T13:24:50;101918.56;;;4.10;100.00
44663;BME280;30381;52.754;18.258;2023-02-27T13:28:10;101913.11;;;4.24;100.00
44663;BME280;30381;52.754;18.258;2023-02-27T13:34:44;101912.52;;;4.59;100.00
44663;BME280;30381;52.754;18.258;2023-02-27T13:37:23;101915.44;;;4.56;100.00
44663;BME280;30381;52.754;18.258;2023-02-27T13:39:55;101916.03;;;4.50;100.00
44663;BME280;30381;52.754;18.258;2023-02-27T13:45:47;101923.29;;;4.34;100.00
44663;BME280;30381;52.754;18.258;2023-02-27T13:48:36;101925.05;;;4.19;100.00
44663;BME280;30381;52.754;18.258;2023-02-27T13:51:54;101921.64;;;4.10;100.00
44663;BME280;30381;52.754;18.258;2023-02-27T13:56:32;101923.45;;;4.03;100.00
44663;BME280;30381;52.754;18.258;2023-02-27T13:59:11;101920.59;;;4.17;100.00
44663;BME280;30381;52.754;18.258;2023-02-27T14:04:50;101917.70;;;4.57;100.00
44663;BME280;30381;52.754;18.258;2023-02-27T14:07:22;101916.97;;;4.59;100.00
44663;BME280;30381;52.754;18.258;2023-02-27T14:09:52;101916.98;;;4.48;100.00
44663;BME280;30381;52.754;18.258;2023-02-27T14:12:34;101918.31;;;4.37;100.00
44663;BME280;30381;52.754;18.258;2023-02-27T14:18:02;101923.02;;;4.02;100.00
44663;BME280;30381;52.754;18.258;2023-02-27T14:23:25;101931.41;;;3.71;100.00
44663;BME280;30381;52.754;18.258;2023-02-27T14:25:55;101934.79;;;3.61;100.00
44663;BME280;30381;52.754;18.258;2023-02-27T14:30:57;101933.19;;;3.49;100.00
44663;BME280;30381;52.754;18.258;2023-02-27T14:34:00;101938.42;;;3.43;100.00
44663;BME280;30381;52.754;18.258;2023-02-27T14:36:58;101939.02;;;3.36;100.00
44663;BME280;30381;52.754;18.258;2023-02-27T14:44:47;101935.66;;;3.25;100.00
44663;BME280;30381;52.754;18.258;2023-02-27T14:49:52;101943.36;;;3.21;100.00
44663;BME280;30381;52.754;18.258;2023-02-27T14:52:43;101946.73;;;3.21;100.00
44663;BME280;30381;52.754;18.258;2023-02-27T15:00:00;101950.52;;;3.31;100.00
44663;BME280;30381;52.754;18.258;2023-02-27T15:02:29;101957.52;;;3.29;100.00
44663;BME280;30381;52.754;18.258;2023-02-27T15:07:29;101959.22;;;3.11;100.00
44663;BME280;30381;52.754;18.258;2023-02-27T15:10:06;101965.52;;;3.05;100.00
44663;BME280;30381;52.754;18.258;2023-02-27T15:12:46;101967.18;;;3.00;100.00
44663;BME280;30381;52.754;18.258;2023-02-27T15:15:17;101966.16;;;2.95;100.00
44663;BME280;30381;52.754;18.258;2023-02-27T15:17:44;101968.80;;;2.90;100.00
44663;BME280;30381;52.754;18.258;2023-02-27T15:23:26;101978.04;;;2.76;100.00
44663;BME280;30381;52.754;18.258;2023-02-27T15:30:50;101980.50;;;2.55;100.00
44663;BME280;30381;52.754;18.258;2023-02-27T15:37:22;101983.92;;;2.45;100.00
44663;BME280;30381;52.754;18.258;2023-02-27T15:41:01;101985.06;;;2.40;100.00
44663;BME280;30381;52.754;18.258;2023-02-27T15:43:59;101992.31;;;2.31;100.00
44663;BME280;30381;52.754;18.258;2023-02-27T15:47:05;102000.18;;;2.23;100.00
44663;BME280;30381;52.754;18.258;2023-02-27T15:49:57;102002.50;;;2.12;100.00
44663;BME280;30381;52.754;18.258;2023-02-27T15:53:02;102002.69;;;2.05;100.00
44663;BME280;30381;52.754;18.258;2023-02-27T15:56:34;102006.41;;;1.96;100.00
44663;BME280;30381;52.754;18.258;2023-02-27T16:03:53;102014.43;;;1.79;100.00
44663;BME280;30381;52.754;18.258;2023-02-27T16:13:39;102021.92;;;1.67;100.00
44663;BME280;30381;52.754;18.258;2023-02-27T16:20:39;102032.92;;;1.62;100.00
44663;BME280;30381;52.754;18.258;2023-02-27T16:23:47;102038.52;;;1.61;100.00
44663;BME280;30381;52.754;18.258;2023-02-27T16:26:46;102042.60;;;1.59;100.00
44663;BME280;30381;52.754;18.258;2023-02-27T16:29:50;102046.51;;;1.55;100.00
44663;BME280;30381;52.754;18.258;2023-02-27T16:32:39;102051.06;;;1.52;100.00
44663;BME280;30381;52.754;18.258;2023-02-27T16:35:43;102058.35;;;1.50;100.00
44663;BME280;30381;52.754;18.258;2023-02-27T16:38:24;102061.70;;;1.47;100.00
44663;BME280;30381;52.754;18.258;2023-02-27T16:41:42;102069.95;;;1.44;100.00
44663;BME280;30381;52.754;18.258;2023-02-27T16:44:50;102071.36;;;1.43;100.00
44663;BME280;30381;52.754;18.258;2023-02-27T16:48:17;102073.66;;;1.41;100.00
44663;BME280;30381;52.754;18.258;2023-02-27T16:58:28;102084.81;;;1.35;100.00
44663;BME280;30381;52.754;18.258;2023-02-27T17:11:04;102106.71;;;1.27;100.00
44663;BME280;30381;52.754;18.258;2023-02-27T17:30:32;102123.34;;;1.07;100.00
44663;BME280;30381;52.754;18.258;2023-02-27T18:09:42;102150.05;;;-0.14;100.00
44663;BME280;30381;52.754;18.258;2023-02-27T18:44:54;102168.33;;;-1.10;100.00
44663;BME280;30381;52.754;18.258;2023-02-27T19:12:20;102181.53;;;-1.71;100.00
44663;BME280;30381;52.754;18.258;2023-02-27T19:15:51;102181.54;;;-1.79;100.00
44663;BME280;30381;52.754;18.258;2023-02-27T19:30:03;102191.00;;;-1.87;100.00
44663;BME280;30381;52.754;18.258;2023-02-27T19:50:33;102201.46;;;-1.96;100.00
44663;BME280;30381;52.754;18.258;2023-02-27T19:53:50;102202.63;;;-2.00;100.00
44663;BME280;30381;52.754;18.258;2023-02-27T19:57:13;102203.74;;;-2.03;100.00
44663;BME280;30381;52.754;18.258;2023-02-27T20:00:37;102198.23;;;-2.05;100.00
44663;BME280;30381;52.754;18.258;2023-02-27T20:03:54;102199.34;;;-2.05;100.00
44663;BME280;30381;52.754;18.258;2023-02-27T20:13:36;102205.14;;;-2.12;100.00
44663;BME280;30381;52.754;18.258;2023-02-27T20:16:25;102202.65;;;-2.14;100.00
44663;BME280;30381;52.754;18.258;2023-02-27T20:19:32;102202.78;;;-2.16;100.00
44663;BME280;30381;52.754;18.258;2023-02-27T20:22:35;102203.77;;;-2.17;100.00
44663;BME280;30381;52.754;18.258;2023-02-27T20:39:01;102216.95;;;-2.28;100.00
44663;BME280;30381;52.754;18.258;2023-02-27T20:41:56;102219.23;;;-2.28;100.00
44663;BME280;30381;52.754;18.258;2023-02-27T20:44:22;102214.64;;;-2.28;100.00
44663;BME280;30381;52.754;18.258;2023-02-27T20:46:49;102214.99;;;-2.30;100.00
44663;BME280;30381;52.754;18.258;2023-02-27T20:49:15;102216.35;;;-2.32;100.00
44663;BME280;30381;52.754;18.258;2023-02-27T20:51:50;102215.75;;;-2.31;100.00
44663;BME280;30381;52.754;18.258;2023-02-27T20:57:02;102215.88;;;-2.28;100.00
44663;BME280;30381;52.754;18.258;2023-02-27T20:59:44;102220.48;;;-2.25;100.00
44663;BME280;30381;52.754;18.258;2023-02-27T21:02:25;102222.38;;;-2.25;100.00
44663;BME280;30381;52.754;18.258;2023-02-27T21:04:51;102224.91;;;-2.26;100.00
44663;BME280;30381;52.754;18.258;2023-02-27T21:07:19;102224.98;;;-2.27;100.00
44663;BME280;30381;52.754;18.258;2023-02-27T21:09:46;102231.59;;;-2.28;100.00
44663;BME280;30381;52.754;18.258;2023-02-27T21:12:13;102231.95;;;-2.28;100.00
44663;BME280;30381;52.754;18.258;2023-02-27T21:14:39;102233.15;;;-2.27;100.00
44663;BME280;30381;52.754;18.258;2023-02-27T21:17:10;102233.05;;;-2.28;100.00
44663;BME280;30381;52.754;18.258;2023-02-27T21:19:48;102235.29;;;-2.28;100.00
44663;BME280;30381;52.754;18.258;2023-02-27T21:22:23;102226.52;;;-2.26;100.00
44663;BME280;30381;52.754;18.258;2023-02-27T21:25:46;102227.50;;;-2.25;100.00
